Bachir Chihani — 7TJA — position and weather

sailwx.info

Track history (hours):
 
Tides and Currents Weather Stations Pressure Air Temp Water Temp Dewpoint Dewpoint Depression Visibility Wind Speed Wind Dir Waves Ship Positions

Bachir Chihani

Last reported at 2017-Mar-26 20:27 UTC. Time now 2017-Mar-27 04:41 UTC.
Position N 36°21' E 000°20'.

Length 280 m; draft 9.3 m.

Type: Ship (hazmat cat D). MMSI: 605106010.

Date/timePositionNaut miles runAvg speedWind from/ knotsBaromVisibWave heightAir tempDewpointWater temp
2017-Mar-26 20:27N 36°21' E 000°20'17 0.9
2017-Mar-26 02:28N 36°13' E 000°02'  
2017-Mar-23 21:20N 36°45' E 013°04'1313.4
2017-Mar-23 20:20N 36°42' E 013°20'1013.4
2017-Mar-23 19:34N 36°39' E 013°33'1312.9
2017-Mar-23 18:33N 36°37' E 013°48'1312.9
2017-Mar-23 17:33N 36°34' E 014°04'1313.0
2017-Mar-23 16:33N 36°31' E 014°20'1313.2
2017-Mar-23 15:33N 36°29' E 014°36'1312.7
2017-Mar-23 14:33N 36°25' E 014°51'1312.8
2017-Mar-23 13:33N 36°22' E 015°07'44011.8
2017-Mar-22 00:25N 37°16' E 024°12'2512.8
2017-Mar-21 22:28N 37°37' E 024°29'1213.2
2017-Mar-21 21:33N 37°49' E 024°32'8413.3
2017-Mar-21 15:14N 39°04' E 025°20'  
2017-Mar-16 23:18N 36°33' E 013°51'1114.1
2017-Mar-16 22:33N 36°35' E 013°38'  
Track history (hours):
 
Tides and Currents Weather Stations Pressure Air Temp Water Temp Dewpoint Dewpoint Depression Visibility Wind Speed Wind Dir Waves Ship Positions

Bachir Chihani

Last reported at 2017-Mar-26 20:27 UTC. Time now 2017-Mar-27 04:41 UTC.
Position N 36°21' E 000°20'.

Length 280 m; draft 9.3 m.

Type: Ship (hazmat cat D). MMSI: 605106010.

Date/timePositionNaut miles runAvg speedWind from/ knotsBaromVisibWave heightAir tempDewpointWater temp
2017-Mar-26 20:27N 36°21' E 000°20'17 0.9
2017-Mar-26 02:28N 36°13' E 000°02'  
2017-Mar-23 21:20N 36°45' E 013°04'1313.4
2017-Mar-23 20:20N 36°42' E 013°20'1013.4
2017-Mar-23 19:34N 36°39' E 013°33'1312.9
2017-Mar-23 18:33N 36°37' E 013°48'1312.9
2017-Mar-23 17:33N 36°34' E 014°04'1313.0
2017-Mar-23 16:33N 36°31' E 014°20'1313.2
2017-Mar-23 15:33N 36°29' E 014°36'1312.7
2017-Mar-23 14:33N 36°25' E 014°51'1312.8
2017-Mar-23 13:33N 36°22' E 015°07'44011.8
2017-Mar-22 00:25N 37°16' E 024°12'2512.8
2017-Mar-21 22:28N 37°37' E 024°29'1213.2
2017-Mar-21 21:33N 37°49' E 024°32'8413.3
2017-Mar-21 15:14N 39°04' E 025°20'  
2017-Mar-16 23:18N 36°33' E 013°51'1114.1
2017-Mar-16 22:33N 36°35' E 013°38'  

Dump ship's entire track history